Chimney Rock, North Carolina
Current Conditions -  °F | °C
As of 8:54 PM on Saturday 22 Nov 2014 (Local Time) from KAVL Reporting Station
Overcast Overcast  
Wind Chill:   Ceiling: 3200
Heat Index:   Visibility: 10mi
Dew Point: -6°   Wind: 7mph
Humidity: 39%   Direction: 170°S
Pressure: 30.32"   Gusts: NA
Location:  35.44°N, 82.25°W
Report Text: KAVL 230154Z 17006KT 10SM OVC032 07/M06 A3032 RMK AO2 SLP273 T00721061
Loading
Personal Weather Stations






























Interactive Weather Map New forecast layout! Learn more

10-Day Weather Forecast

Advertisements
Track Severe Weather on mobile